sensor_id;sensor_type;location;lat;lon;timestamp;P1;durP1;ratioP1;P2;durP2;ratioP2
19223;SDS011;9746;47.180;9.776;2023-04-24T10:17:41;0.15;;;0.15;;
19223;SDS011;9746;47.180;9.776;2023-04-24T10:20:10;0.10;;;0.10;;
19223;SDS011;9746;47.180;9.776;2023-04-24T10:22:38;0.20;;;0.20;;
19223;SDS011;9746;47.180;9.776;2023-04-24T10:25:07;0.20;;;0.20;;
19223;SDS011;9746;47.180;9.776;2023-04-24T10:27:37;0.20;;;0.20;;
19223;SDS011;9746;47.180;9.776;2023-04-24T10:30:06;0.20;;;0.20;;
19223;SDS011;9746;47.180;9.776;2023-04-24T10:35:25;0.20;;;0.20;;
19223;SDS011;9746;47.180;9.776;2023-04-24T10:37:54;0.20;;;0.20;;
19223;SDS011;9746;47.180;9.776;2023-04-24T10:40:25;0.20;;;0.20;;
19223;SDS011;9746;47.180;9.776;2023-04-24T10:45:36;0.15;;;0.15;;
19223;SDS011;9746;47.180;9.776;2023-04-24T10:48:06;0.20;;;0.20;;
19223;SDS011;9746;47.180;9.776;2023-04-24T10:50:42;0.20;;;0.20;;
19223;SDS011;9746;47.180;9.776;2023-04-24T10:53:16;0.20;;;0.20;;
19223;SDS011;9746;47.180;9.776;2023-04-24T10:55:46;0.20;;;0.20;;
19223;SDS011;9746;47.180;9.776;2023-04-24T11:01:03;0.20;;;0.20;;
19223;SDS011;9746;47.180;9.776;2023-04-24T11:03:33;0.20;;;0.20;;
19223;SDS011;9746;47.180;9.776;2023-04-24T11:06:03;0.20;;;0.20;;
19223;SDS011;9746;47.180;9.776;2023-04-24T11:08:38;0.20;;;0.20;;
19223;SDS011;9746;47.180;9.776;2023-04-24T11:11:09;0.20;;;0.20;;
19223;SDS011;9746;47.180;9.776;2023-04-24T11:16:32;0.20;;;0.20;;
19223;SDS011;9746;47.180;9.776;2023-04-24T11:19:04;0.20;;;0.20;;
19223;SDS011;9746;47.180;9.776;2023-04-24T11:21:38;0.20;;;0.20;;
19223;SDS011;9746;47.180;9.776;2023-04-24T11:24:26;0.20;;;0.20;;
19223;SDS011;9746;47.180;9.776;2023-04-24T11:26:56;0.20;;;0.20;;
19223;SDS011;9746;47.180;9.776;2023-04-24T11:32:23;0.20;;;0.20;;
19223;SDS011;9746;47.180;9.776;2023-04-24T11:35:01;0.20;;;0.20;;
19223;SDS011;9746;47.180;9.776;2023-04-24T11:37:33;0.20;;;0.20;;
19223;SDS011;9746;47.180;9.776;2023-04-24T11:40:04;0.20;;;0.20;;
19223;SDS011;9746;47.180;9.776;2023-04-24T11:42:33;0.20;;;0.20;;
19223;SDS011;9746;47.180;9.776;2023-04-24T11:45:01;0.20;;;0.20;;
19223;SDS011;9746;47.180;9.776;2023-04-24T11:47:33;0.20;;;0.20;;
19223;SDS011;9746;47.180;9.776;2023-04-24T11:50:04;0.20;;;0.20;;
19223;SDS011;9746;47.180;9.776;2023-04-24T11:52:33;0.20;;;0.20;;
19223;SDS011;9746;47.180;9.776;2023-04-24T11:55:07;0.20;;;0.20;;
19223;SDS011;9746;47.180;9.776;2023-04-24T11:57:50;0.20;;;0.20;;
19223;SDS011;9746;47.180;9.776;2023-04-24T12:00:21;0.20;;;0.20;;
19223;SDS011;9746;47.180;9.776;2023-04-24T12:02:49;0.20;;;0.20;;
19223;SDS011;9746;47.180;9.776;2023-04-24T12:05:27;0.20;;;0.20;;
19223;SDS011;9746;47.180;9.776;2023-04-24T12:07:56;0.20;;;0.20;;
19223;SDS011;9746;47.180;9.776;2023-04-24T12:10:25;0.20;;;0.20;;
19223;SDS011;9746;47.180;9.776;2023-04-24T12:12:55;0.20;;;0.20;;
19223;SDS011;9746;47.180;9.776;2023-04-24T12:15:24;0.20;;;0.20;;
19223;SDS011;9746;47.180;9.776;2023-04-24T12:17:52;0.20;;;0.20;;
19223;SDS011;9746;47.180;9.776;2023-04-24T12:22:59;0.20;;;0.20;;
19223;SDS011;9746;47.180;9.776;2023-04-24T12:25:30;0.20;;;0.20;;
19223;SDS011;9746;47.180;9.776;2023-04-24T12:28:08;0.20;;;0.20;;
19223;SDS011;9746;47.180;9.776;2023-04-24T12:33:17;0.10;;;0.10;;
19223;SDS011;9746;47.180;9.776;2023-04-24T12:35:48;0.17;;;0.17;;
19223;SDS011;9746;47.180;9.776;2023-04-24T12:38:21;0.20;;;0.20;;
19223;SDS011;9746;47.180;9.776;2023-04-24T12:41:01;0.20;;;0.20;;
19223;SDS011;9746;47.180;9.776;2023-04-24T12:43:29;0.17;;;0.17;;
19223;SDS011;9746;47.180;9.776;2023-04-24T12:45:56;0.20;;;0.20;;
19223;SDS011;9746;47.180;9.776;2023-04-24T12:48:24;0.20;;;0.20;;
19223;SDS011;9746;47.180;9.776;2023-04-24T12:50:54;0.20;;;0.20;;
19223;SDS011;9746;47.180;9.776;2023-04-24T12:53:21;0.20;;;0.20;;
19223;SDS011;9746;47.180;9.776;2023-04-24T12:55:52;0.10;;;0.10;;
19223;SDS011;9746;47.180;9.776;2023-04-24T12:58:19;0.10;;;0.10;;
19223;SDS011;9746;47.180;9.776;2023-04-24T13:00:47;0.13;;;0.13;;
19223;SDS011;9746;47.180;9.776;2023-04-24T13:03:15;0.20;;;0.20;;
19223;SDS011;9746;47.180;9.776;2023-04-24T13:05:57;0.20;;;0.20;;
19223;SDS011;9746;47.180;9.776;2023-04-24T13:08:24;0.10;;;0.10;;
19223;SDS011;9746;47.180;9.776;2023-04-24T13:10:53;0.20;;;0.20;;
19223;SDS011;9746;47.180;9.776;2023-04-24T13:13:20;0.20;;;0.20;;
19223;SDS011;9746;47.180;9.776;2023-04-24T13:18:40;0.20;;;0.20;;
19223;SDS011;9746;47.180;9.776;2023-04-24T13:21:08;0.10;;;0.10;;
19223;SDS011;9746;47.180;9.776;2023-04-24T13:23:36;0.10;;;0.10;;
19223;SDS011;9746;47.180;9.776;2023-04-24T13:26:04;0.10;;;0.10;;
19223;SDS011;9746;47.180;9.776;2023-04-24T13:28:32;0.10;;;0.10;;
19223;SDS011;9746;47.180;9.776;2023-04-24T13:31:00;0.10;;;0.10;;
19223;SDS011;9746;47.180;9.776;2023-04-24T13:33:27;0.10;;;0.10;;
19223;SDS011;9746;47.180;9.776;2023-04-24T13:35:55;0.10;;;0.10;;
19223;SDS011;9746;47.180;9.776;2023-04-24T13:38:24;0.10;;;0.10;;
19223;SDS011;9746;47.180;9.776;2023-04-24T13:40:52;0.10;;;0.10;;
19223;SDS011;9746;47.180;9.776;2023-04-24T13:43:20;0.10;;;0.10;;
19223;SDS011;9746;47.180;9.776;2023-04-24T13:45:50;0.10;;;0.10;;
19223;SDS011;9746;47.180;9.776;2023-04-24T13:48:19;0.10;;;0.10;;
19223;SDS011;9746;47.180;9.776;2023-04-24T13:50:46;0.10;;;0.10;;
19223;SDS011;9746;47.180;9.776;2023-04-24T13:53:15;0.10;;;0.10;;
19223;SDS011;9746;47.180;9.776;2023-04-24T13:55:47;0.10;;;0.10;;
19223;SDS011;9746;47.180;9.776;2023-04-24T13:58:16;0.10;;;0.10;;
19223;SDS011;9746;47.180;9.776;2023-04-24T14:00:50;0.10;;;0.10;;
19223;SDS011;9746;47.180;9.776;2023-04-24T14:03:18;0.10;;;0.10;;
19223;SDS011;9746;47.180;9.776;2023-04-24T14:05:47;0.10;;;0.10;;
19223;SDS011;9746;47.180;9.776;2023-04-24T14:08:14;0.20;;;0.20;;
19223;SDS011;9746;47.180;9.776;2023-04-24T14:10:51;0.17;;;0.17;;
19223;SDS011;9746;47.180;9.776;2023-04-24T14:13:21;0.20;;;0.20;;
19223;SDS011;9746;47.180;9.776;2023-04-24T14:18:20;0.20;;;0.20;;
19223;SDS011;9746;47.180;9.776;2023-04-24T14:20:49;0.20;;;0.20;;
19223;SDS011;9746;47.180;9.776;2023-04-24T14:23:17;0.20;;;0.20;;
19223;SDS011;9746;47.180;9.776;2023-04-24T14:28:27;0.20;;;0.20;;
19223;SDS011;9746;47.180;9.776;2023-04-24T14:30:58;0.13;;;0.13;;
19223;SDS011;9746;47.180;9.776;2023-04-24T14:33:26;0.20;;;0.20;;
19223;SDS011;9746;47.180;9.776;2023-04-24T14:35:53;0.10;;;0.10;;
19223;SDS011;9746;47.180;9.776;2023-04-24T14:38:21;0.10;;;0.10;;
19223;SDS011;9746;47.180;9.776;2023-04-24T14:40:49;0.10;;;0.10;;
19223;SDS011;9746;47.180;9.776;2023-04-24T14:43:18;0.10;;;0.10;;
19223;SDS011;9746;47.180;9.776;2023-04-24T14:45:46;0.00;;;0.00;;
19223;SDS011;9746;47.180;9.776;2023-04-24T14:48:14;0.10;;;0.10;;
19223;SDS011;9746;47.180;9.776;2023-04-24T14:50:43;0.10;;;0.10;;
19223;SDS011;9746;47.180;9.776;2023-04-24T14:53:11;0.00;;;0.00;;
19223;SDS011;9746;47.180;9.776;2023-04-24T14:55:54;0.00;;;0.00;;
19223;SDS011;9746;47.180;9.776;2023-04-24T14:58:24;0.00;;;0.00;;
19223;SDS011;9746;47.180;9.776;2023-04-24T15:03:54;0.00;;;0.00;;
19223;SDS011;9746;47.180;9.776;2023-04-24T15:08:58;0.00;;;0.00;;
19223;SDS011;9746;47.180;9.776;2023-04-24T15:14:14;0.10;;;0.10;;
19223;SDS011;9746;47.180;9.776;2023-04-24T15:16:43;0.10;;;0.10;;
19223;SDS011;9746;47.180;9.776;2023-04-24T15:19:12;0.10;;;0.10;;
19223;SDS011;9746;47.180;9.776;2023-04-24T15:21:56;0.10;;;0.10;;
19223;SDS011;9746;47.180;9.776;2023-04-24T15:24:23;0.00;;;0.00;;
19223;SDS011;9746;47.180;9.776;2023-04-24T15:29:59;0.10;;;0.10;;
19223;SDS011;9746;47.180;9.776;2023-04-24T15:32:28;0.10;;;0.10;;
19223;SDS011;9746;47.180;9.776;2023-04-24T15:34:58;0.10;;;0.10;;
19223;SDS011;9746;47.180;9.776;2023-04-24T15:37:26;0.10;;;0.10;;
19223;SDS011;9746;47.180;9.776;2023-04-24T15:39:55;0.10;;;0.10;;
19223;SDS011;9746;47.180;9.776;2023-04-24T15:42:24;0.08;;;0.08;;
19223;SDS011;9746;47.180;9.776;2023-04-24T15:45:03;0.10;;;0.10;;
19223;SDS011;9746;47.180;9.776;2023-04-24T15:47:35;0.00;;;0.00;;
19223;SDS011;9746;47.180;9.776;2023-04-24T15:50:03;0.10;;;0.10;;
19223;SDS011;9746;47.180;9.776;2023-04-24T15:52:33;0.10;;;0.10;;
19223;SDS011;9746;47.180;9.776;2023-04-24T15:57:34;0.13;;;0.13;;
19223;SDS011;9746;47.180;9.776;2023-04-24T16:00:08;0.10;;;0.10;;
19223;SDS011;9746;47.180;9.776;2023-04-24T16:02:38;0.10;;;0.10;;
19223;SDS011;9746;47.180;9.776;2023-04-24T16:05:08;0.10;;;0.10;;
19223;SDS011;9746;47.180;9.776;2023-04-24T16:07:42;0.15;;;0.15;;
19223;SDS011;9746;47.180;9.776;2023-04-24T16:10:17;0.20;;;0.20;;
19223;SDS011;9746;47.180;9.776;2023-04-24T16:12:45;0.10;;;0.10;;
19223;SDS011;9746;47.180;9.776;2023-04-24T16:15:21;0.10;;;0.10;;
19223;SDS011;9746;47.180;9.776;2023-04-24T16:17:50;0.13;;;0.13;;
19223;SDS011;9746;47.180;9.776;2023-04-24T16:20:24;0.10;;;0.10;;
19223;SDS011;9746;47.180;9.776;2023-04-24T16:22:52;0.10;;;0.10;;
19223;SDS011;9746;47.180;9.776;2023-04-24T16:25:20;0.20;;;0.20;;
19223;SDS011;9746;47.180;9.776;2023-04-24T16:27:48;0.20;;;0.20;;
19223;SDS011;9746;47.180;9.776;2023-04-24T16:30:19;0.20;;;0.20;;
19223;SDS011;9746;47.180;9.776;2023-04-24T16:32:51;0.10;;;0.10;;
19223;SDS011;9746;47.180;9.776;2023-04-24T16:35:23;0.20;;;0.20;;
19223;SDS011;9746;47.180;9.776;2023-04-24T16:37:55;0.17;;;0.17;;
19223;SDS011;9746;47.180;9.776;2023-04-24T16:40:25;0.10;;;0.10;;
19223;SDS011;9746;47.180;9.776;2023-04-24T16:42:55;0.15;;;0.15;;
19223;SDS011;9746;47.180;9.776;2023-04-24T16:45:27;0.10;;;0.10;;
19223;SDS011;9746;47.180;9.776;2023-04-24T16:47:57;0.17;;;0.17;;
19223;SDS011;9746;47.180;9.776;2023-04-24T16:50:34;0.20;;;0.20;;
19223;SDS011;9746;47.180;9.776;2023-04-24T16:53:06;0.20;;;0.20;;
19223;SDS011;9746;47.180;9.776;2023-04-24T16:55:36;0.10;;;0.10;;
19223;SDS011;9746;47.180;9.776;2023-04-24T16:58:04;0.17;;;0.17;;
19223;SDS011;9746;47.180;9.776;2023-04-24T17:00:41;0.10;;;0.10;;
19223;SDS011;9746;47.180;9.776;2023-04-24T17:03:10;0.10;;;0.10;;
19223;SDS011;9746;47.180;9.776;2023-04-24T17:05:40;0.10;;;0.10;;
19223;SDS011;9746;47.180;9.776;2023-04-24T17:08:07;0.10;;;0.10;;
19223;SDS011;9746;47.180;9.776;2023-04-24T17:10:37;0.20;;;0.20;;
19223;SDS011;9746;47.180;9.776;2023-04-24T17:13:05;0.15;;;0.15;;
19223;SDS011;9746;47.180;9.776;2023-04-24T17:15:32;0.20;;;0.20;;
19223;SDS011;9746;47.180;9.776;2023-04-24T17:18:02;0.10;;;0.10;;
19223;SDS011;9746;47.180;9.776;2023-04-24T17:20:32;0.20;;;0.20;;
19223;SDS011;9746;47.180;9.776;2023-04-24T17:22:59;0.20;;;0.20;;
19223;SDS011;9746;47.180;9.776;2023-04-24T17:25:27;0.20;;;0.20;;
19223;SDS011;9746;47.180;9.776;2023-04-24T17:27:57;0.20;;;0.20;;
19223;SDS011;9746;47.180;9.776;2023-04-24T17:30:27;0.20;;;0.20;;
19223;SDS011;9746;47.180;9.776;2023-04-24T17:32:55;0.20;;;0.20;;
19223;SDS011;9746;47.180;9.776;2023-04-24T17:35:29;0.20;;;0.20;;
19223;SDS011;9746;47.180;9.776;2023-04-24T17:37:56;0.20;;;0.20;;
19223;SDS011;9746;47.180;9.776;2023-04-24T17:40:27;0.20;;;0.20;;
19223;SDS011;9746;47.180;9.776;2023-04-24T17:42:54;0.20;;;0.20;;
19223;SDS011;9746;47.180;9.776;2023-04-24T17:45:24;0.20;;;0.20;;
19223;SDS011;9746;47.180;9.776;2023-04-24T17:47:55;0.20;;;0.20;;
19223;SDS011;9746;47.180;9.776;2023-04-24T17:50:23;0.20;;;0.20;;
19223;SDS011;9746;47.180;9.776;2023-04-24T17:52:52;0.20;;;0.20;;
19223;SDS011;9746;47.180;9.776;2023-04-24T17:55:19;0.20;;;0.20;;
19223;SDS011;9746;47.180;9.776;2023-04-24T17:57:48;0.20;;;0.20;;
19223;SDS011;9746;47.180;9.776;2023-04-24T18:00:16;0.17;;;0.17;;
19223;SDS011;9746;47.180;9.776;2023-04-24T18:02:47;0.20;;;0.20;;
19223;SDS011;9746;47.180;9.776;2023-04-24T18:05:16;0.20;;;0.20;;
19223;SDS011;9746;47.180;9.776;2023-04-24T18:10:16;0.20;;;0.20;;
19223;SDS011;9746;47.180;9.776;2023-04-24T18:15:30;0.20;;;0.20;;
19223;SDS011;9746;47.180;9.776;2023-04-24T18:17:59;0.25;;;0.25;;
19223;SDS011;9746;47.180;9.776;2023-04-24T18:20:28;0.30;;;0.30;;
19223;SDS011;9746;47.180;9.776;2023-04-24T18:23:16;0.20;;;0.20;;
19223;SDS011;9746;47.180;9.776;2023-04-24T18:25:46;0.20;;;0.20;;
19223;SDS011;9746;47.180;9.776;2023-04-24T18:28:13;0.23;;;0.23;;
19223;SDS011;9746;47.180;9.776;2023-04-24T18:30:42;0.20;;;0.20;;
19223;SDS011;9746;47.180;9.776;2023-04-24T18:33:10;0.20;;;0.20;;
19223;SDS011;9746;47.180;9.776;2023-04-24T18:35:40;0.30;;;0.30;;
19223;SDS011;9746;47.180;9.776;2023-04-24T18:38:08;0.30;;;0.30;;
19223;SDS011;9746;47.180;9.776;2023-04-24T18:40:43;0.20;;;0.20;;
19223;SDS011;9746;47.180;9.776;2023-04-24T18:43:33;0.30;;;0.30;;
19223;SDS011;9746;47.180;9.776;2023-04-24T18:46:21;0.30;;;0.30;;
19223;SDS011;9746;47.180;9.776;2023-04-24T18:48:53;0.20;;;0.20;;
19223;SDS011;9746;47.180;9.776;2023-04-24T18:51:21;0.20;;;0.20;;
19223;SDS011;9746;47.180;9.776;2023-04-24T18:53:53;0.20;;;0.20;;
19223;SDS011;9746;47.180;9.776;2023-04-24T18:56:23;0.30;;;0.30;;
19223;SDS011;9746;47.180;9.776;2023-04-24T18:58:51;0.30;;;0.30;;
19223;SDS011;9746;47.180;9.776;2023-04-24T19:01:22;0.30;;;0.30;;
19223;SDS011;9746;47.180;9.776;2023-04-24T19:03:51;0.30;;;0.30;;
19223;SDS011;9746;47.180;9.776;2023-04-24T19:06:20;0.20;;;0.20;;
19223;SDS011;9746;47.180;9.776;2023-04-24T19:08:47;0.30;;;0.30;;
19223;SDS011;9746;47.180;9.776;2023-04-24T19:11:22;0.30;;;0.30;;
19223;SDS011;9746;47.180;9.776;2023-04-24T19:13:50;0.20;;;0.20;;
19223;SDS011;9746;47.180;9.776;2023-04-24T19:19:07;0.30;;;0.30;;
19223;SDS011;9746;47.180;9.776;2023-04-24T19:24:12;0.30;;;0.30;;
19223;SDS011;9746;47.180;9.776;2023-04-24T19:26:42;0.23;;;0.23;;
19223;SDS011;9746;47.180;9.776;2023-04-24T19:29:09;0.20;;;0.20;;
19223;SDS011;9746;47.180;9.776;2023-04-24T19:31:38;0.20;;;0.20;;
19223;SDS011;9746;47.180;9.776;2023-04-24T19:34:05;0.20;;;0.20;;
